sensor_id;sensor_type;location;lat;lon;timestamp;P1;P2;P0
26185;PMS7003;20067;48.764;9.176;2023-05-10T00:00:26;23.50;23.50;20.25
26185;PMS7003;20067;48.764;9.176;2023-05-10T00:02:52;23.50;23.50;20.50
26185;PMS7003;20067;48.764;9.176;2023-05-10T00:05:17;32.00;32.00;27.75
26185;PMS7003;20067;48.764;9.176;2023-05-10T00:07:43;29.00;29.00;26.50
26185;PMS7003;20067;48.764;9.176;2023-05-10T00:10:12;28.75;28.00;24.75
26185;PMS7003;20067;48.764;9.176;2023-05-10T00:12:37;29.00;28.00;24.50
26185;PMS7003;20067;48.764;9.176;2023-05-10T00:15:03;22.50;22.50;18.75
26185;PMS7003;20067;48.764;9.176;2023-05-10T00:17:30;17.00;17.00;14.75
26185;PMS7003;20067;48.764;9.176;2023-05-10T00:19:55;14.50;14.25;11.25
26185;PMS7003;20067;48.764;9.176;2023-05-10T00:22:22;12.50;12.50;9.50
26185;PMS7003;20067;48.764;9.176;2023-05-10T00:24:48;15.25;15.25;12.00
26185;PMS7003;20067;48.764;9.176;2023-05-10T00:27:13;12.25;12.25;9.00
26185;PMS7003;20067;48.764;9.176;2023-05-10T00:29:39;12.50;12.50;9.00
26185;PMS7003;20067;48.764;9.176;2023-05-10T00:32:05;11.50;11.50;8.50
26185;PMS7003;20067;48.764;9.176;2023-05-10T00:34:30;14.75;13.00;10.00
26185;PMS7003;20067;48.764;9.176;2023-05-10T00:36:56;13.00;12.00;9.00
26185;PMS7003;20067;48.764;9.176;2023-05-10T00:39:22;9.25;9.25;6.50
26185;PMS7003;20067;48.764;9.176;2023-05-10T00:41:47;8.00;8.00;5.00
26185;PMS7003;20067;48.764;9.176;2023-05-10T00:44:13;8.75;8.75;5.25
26185;PMS7003;20067;48.764;9.176;2023-05-10T00:46:38;6.00;6.00;4.00
26185;PMS7003;20067;48.764;9.176;2023-05-10T00:49:04;7.00;6.00;3.50
26185;PMS7003;20067;48.764;9.176;2023-05-10T00:51:30;6.50;6.50;4.25
26185;PMS7003;20067;48.764;9.176;2023-05-10T00:53:56;8.75;8.75;5.50
26185;PMS7003;20067;48.764;9.176;2023-05-10T00:56:23;8.00;8.00;5.00
26185;PMS7003;20067;48.764;9.176;2023-05-10T00:58:49;6.50;6.50;4.25
26185;PMS7003;20067;48.764;9.176;2023-05-10T01:01:15;5.50;5.50;2.00
26185;PMS7003;20067;48.764;9.176;2023-05-10T01:03:41;6.75;6.75;4.00
26185;PMS7003;20067;48.764;9.176;2023-05-10T01:06:07;6.75;6.75;4.00
26185;PMS7003;20067;48.764;9.176;2023-05-10T01:15:16;7.50;7.50;4.75
26185;PMS7003;20067;48.764;9.176;2023-05-10T01:17:43;6.00;6.00;4.00
26185;PMS7003;20067;48.764;9.176;2023-05-10T01:20:11;7.50;7.50;4.50
26185;PMS7003;20067;48.764;9.176;2023-05-10T01:34:17;5.00;5.00;2.00
26185;PMS7003;20067;48.764;9.176;2023-05-10T01:36:51;5.25;5.25;2.50
26185;PMS7003;20067;48.764;9.176;2023-05-10T01:41:52;5.00;5.00;2.00
26185;PMS7003;20067;48.764;9.176;2023-05-10T01:44:40;5.00;5.00;2.00
26185;PMS7003;20067;48.764;9.176;2023-05-10T01:47:15;6.00;5.00;2.00
26185;PMS7003;20067;48.764;9.176;2023-05-10T01:49:55;6.00;6.00;4.00
26185;PMS7003;20067;48.764;9.176;2023-05-10T01:52:26;6.00;6.00;4.00
26185;PMS7003;20067;48.764;9.176;2023-05-10T01:55:16;6.00;6.00;4.00
26185;PMS7003;20067;48.764;9.176;2023-05-10T01:57:43;6.00;6.00;4.00
26185;PMS7003;20067;48.764;9.176;2023-05-10T02:00:11;6.00;6.00;4.00
26185;PMS7003;20067;48.764;9.176;2023-05-10T02:02:42;11.25;11.25;8.25
26185;PMS7003;20067;48.764;9.176;2023-05-10T02:05:11;13.00;13.00;10.00
26185;PMS7003;20067;48.764;9.176;2023-05-10T02:07:38;14.50;14.25;10.75
26185;PMS7003;20067;48.764;9.176;2023-05-10T02:10:05;16.50;16.50;14.00
26185;PMS7003;20067;48.764;9.176;2023-05-10T02:12:35;19.75;19.75;16.50
26185;PMS7003;20067;48.764;9.176;2023-05-10T02:15:03;23.00;20.25;17.25
26185;PMS7003;20067;48.764;9.176;2023-05-10T02:17:31;20.25;20.25;17.50
26185;PMS7003;20067;48.764;9.176;2023-05-10T02:19:58;22.00;22.00;19.00
26185;PMS7003;20067;48.764;9.176;2023-05-10T02:22:26;18.50;18.50;15.00
26185;PMS7003;20067;48.764;9.176;2023-05-10T02:24:53;19.50;19.50;15.00
26185;PMS7003;20067;48.764;9.176;2023-05-10T02:27:22;16.00;16.00;13.25
26185;PMS7003;20067;48.764;9.176;2023-05-10T02:29:50;14.25;14.25;11.25
26185;PMS7003;20067;48.764;9.176;2023-05-10T02:32:17;11.50;11.50;8.50
26185;PMS7003;20067;48.764;9.176;2023-05-10T02:34:44;11.50;11.50;8.50
26185;PMS7003;20067;48.764;9.176;2023-05-10T02:37:12;11.25;11.25;8.00
26185;PMS7003;20067;48.764;9.176;2023-05-10T02:39:40;11.25;11.25;8.25
26185;PMS7003;20067;48.764;9.176;2023-05-10T02:42:10;16.00;16.00;13.00
26185;PMS7003;20067;48.764;9.176;2023-05-10T02:44:41;14.75;14.75;11.00
26185;PMS7003;20067;48.764;9.176;2023-05-10T02:47:10;11.50;11.50;8.50
26185;PMS7003;20067;48.764;9.176;2023-05-10T02:49:36;16.00;16.00;13.00
26185;PMS7003;20067;48.764;9.176;2023-05-10T02:52:02;13.00;13.00;10.00
26185;PMS7003;20067;48.764;9.176;2023-05-10T02:54:33;14.25;14.25;11.25
26185;PMS7003;20067;48.764;9.176;2023-05-10T02:57:06;15.25;15.25;12.00
26185;PMS7003;20067;48.764;9.176;2023-05-10T02:59:33;18.50;17.50;14.50
26185;PMS7003;20067;48.764;9.176;2023-05-10T03:01:59;16.75;16.75;13.50
26185;PMS7003;20067;48.764;9.176;2023-05-10T03:04:27;17.50;17.50;14.25
26185;PMS7003;20067;48.764;9.176;2023-05-10T03:06:52;15.25;14.75;11.75
26185;PMS7003;20067;48.764;9.176;2023-05-10T03:09:18;13.75;13.50;11.00
26185;PMS7003;20067;48.764;9.176;2023-05-10T03:19:39;11.75;10.25;7.00
26185;PMS7003;20067;48.764;9.176;2023-05-10T03:22:16;10.75;9.00;6.00
26185;PMS7003;20067;48.764;9.176;2023-05-10T03:25:07;9.00;9.00;5.50
26185;PMS7003;20067;48.764;9.176;2023-05-10T03:27:35;9.50;9.50;6.50
26185;PMS7003;20067;48.764;9.176;2023-05-10T03:30:03;8.00;8.00;5.00
26185;PMS7003;20067;48.764;9.176;2023-05-10T03:32:31;6.00;6.00;4.00
26185;PMS7003;20067;48.764;9.176;2023-05-10T03:34:59;5.00;5.00;2.00
26185;PMS7003;20067;48.764;9.176;2023-05-10T03:37:24;7.00;6.00;4.00
26185;PMS7003;20067;48.764;9.176;2023-05-10T03:39:50;7.00;6.00;4.00
26185;PMS7003;20067;48.764;9.176;2023-05-10T03:42:16;6.00;6.00;4.00
26185;PMS7003;20067;48.764;9.176;2023-05-10T03:44:42;8.50;8.25;4.75
26185;PMS7003;20067;48.764;9.176;2023-05-10T03:47:08;10.50;10.50;7.50
26185;PMS7003;20067;48.764;9.176;2023-05-10T03:49:34;9.00;9.00;6.75
26185;PMS7003;20067;48.764;9.176;2023-05-10T03:51:59;9.00;9.00;6.00
26185;PMS7003;20067;48.764;9.176;2023-05-10T03:54:25;11.00;11.00;7.50
26185;PMS7003;20067;48.764;9.176;2023-05-10T03:56:51;10.50;9.00;5.25
26185;PMS7003;20067;48.764;9.176;2023-05-10T03:59:16;8.50;8.50;5.00
26185;PMS7003;20067;48.764;9.176;2023-05-10T04:01:42;10.50;10.00;7.00
26185;PMS7003;20067;48.764;9.176;2023-05-10T04:04:07;13.50;13.50;9.00
26185;PMS7003;20067;48.764;9.176;2023-05-10T04:06:33;15.75;15.75;12.00
26185;PMS7003;20067;48.764;9.176;2023-05-10T04:08:59;20.75;19.00;15.50
26185;PMS7003;20067;48.764;9.176;2023-05-10T04:11:26;19.00;19.00;15.75
26185;PMS7003;20067;48.764;9.176;2023-05-10T04:13:52;19.00;18.25;15.25
26185;PMS7003;20067;48.764;9.176;2023-05-10T04:16:18;17.50;17.50;14.00
26185;PMS7003;20067;48.764;9.176;2023-05-10T04:18:43;19.00;17.25;14.00
26185;PMS7003;20067;48.764;9.176;2023-05-10T04:21:12;15.00;15.00;11.00
26185;PMS7003;20067;48.764;9.176;2023-05-10T04:23:38;14.25;14.25;11.00
26185;PMS7003;20067;48.764;9.176;2023-05-10T04:26:04;13.75;13.75;10.00
26185;PMS7003;20067;48.764;9.176;2023-05-10T04:28:29;14.25;14.25;10.75
26185;PMS7003;20067;48.764;9.176;2023-05-10T04:31:08;14.75;14.75;11.00
26185;PMS7003;20067;48.764;9.176;2023-05-10T04:33:35;18.75;17.75;14.00
26185;PMS7003;20067;48.764;9.176;2023-05-10T04:36:01;18.00;18.00;14.50
26185;PMS7003;20067;48.764;9.176;2023-05-10T04:38:27;21.75;21.75;19.00
26185;PMS7003;20067;48.764;9.176;2023-05-10T04:40:53;25.50;23.75;20.00
26185;PMS7003;20067;48.764;9.176;2023-05-10T04:43:19;23.50;23.50;20.25
26185;PMS7003;20067;48.764;9.176;2023-05-10T04:45:45;18.50;18.50;15.50
26185;PMS7003;20067;48.764;9.176;2023-05-10T04:48:10;19.25;19.25;15.50
26185;PMS7003;20067;48.764;9.176;2023-05-10T04:50:36;17.75;17.50;13.50
26185;PMS7003;20067;48.764;9.176;2023-05-10T04:53:02;19.00;18.00;14.00
26185;PMS7003;20067;48.764;9.176;2023-05-10T04:55:27;14.75;14.75;11.00
26185;PMS7003;20067;48.764;9.176;2023-05-10T04:57:53;15.50;15.50;12.00
26185;PMS7003;20067;48.764;9.176;2023-05-10T05:00:21;12.50;12.50;9.50
26185;PMS7003;20067;48.764;9.176;2023-05-10T05:02:47;16.50;16.50;13.50
26185;PMS7003;20067;48.764;9.176;2023-05-10T05:05:13;18.00;17.75;14.50
26185;PMS7003;20067;48.764;9.176;2023-05-10T05:07:39;19.50;19.50;15.75
26185;PMS7003;20067;48.764;9.176;2023-05-10T05:10:05;19.75;18.00;14.00
26185;PMS7003;20067;48.764;9.176;2023-05-10T05:12:31;15.00;15.00;11.75
26185;PMS7003;20067;48.764;9.176;2023-05-10T05:14:57;14.75;14.75;11.75
26185;PMS7003;20067;48.764;9.176;2023-05-10T05:17:23;14.25;14.25;11.25
26185;PMS7003;20067;48.764;9.176;2023-05-10T05:19:50;14.00;14.00;11.00
26185;PMS7003;20067;48.764;9.176;2023-05-10T05:22:16;15.00;15.00;11.25
26185;PMS7003;20067;48.764;9.176;2023-05-10T05:24:41;15.75;15.75;12.00
26185;PMS7003;20067;48.764;9.176;2023-05-10T05:27:07;15.00;13.25;10.00
26185;PMS7003;20067;48.764;9.176;2023-05-10T05:29:33;15.00;15.00;11.00
26185;PMS7003;20067;48.764;9.176;2023-05-10T05:31:59;17.00;17.00;13.75
26185;PMS7003;20067;48.764;9.176;2023-05-10T05:34:24;13.75;13.75;10.25
26185;PMS7003;20067;48.764;9.176;2023-05-10T05:36:50;15.00;15.00;11.00
26185;PMS7003;20067;48.764;9.176;2023-05-10T05:39:16;12.50;12.50;9.50
26185;PMS7003;20067;48.764;9.176;2023-05-10T05:41:42;14.25;14.25;11.00
26185;PMS7003;20067;48.764;9.176;2023-05-10T05:44:08;12.50;11.75;8.00
26185;PMS7003;20067;48.764;9.176;2023-05-10T05:46:34;10.50;10.50;7.00
26185;PMS7003;20067;48.764;9.176;2023-05-10T05:48:59;8.25;8.25;5.00
26185;PMS7003;20067;48.764;9.176;2023-05-10T05:51:26;10.50;10.50;6.25
26185;PMS7003;20067;48.764;9.176;2023-05-10T05:53:51;9.00;9.00;5.75
26185;PMS7003;20067;48.764;9.176;2023-05-10T05:56:17;9.00;9.00;5.25
26185;PMS7003;20067;48.764;9.176;2023-05-10T05:58:49;8.00;8.00;4.75
26185;PMS7003;20067;48.764;9.176;2023-05-10T06:01:15;8.00;8.00;5.00
26185;PMS7003;20067;48.764;9.176;2023-05-10T06:03:41;7.00;7.00;4.00
26185;PMS7003;20067;48.764;9.176;2023-05-10T06:06:06;10.25;9.00;5.75
26185;PMS7003;20067;48.764;9.176;2023-05-10T06:08:32;8.50;8.50;5.00
26185;PMS7003;20067;48.764;9.176;2023-05-10T06:10:59;8.00;8.00;5.00
26185;PMS7003;20067;48.764;9.176;2023-05-10T06:13:25;9.00;9.00;5.00
26185;PMS7003;20067;48.764;9.176;2023-05-10T06:15:56;11.00;11.00;6.50
26185;PMS7003;20067;48.764;9.176;2023-05-10T06:18:22;10.50;9.00;5.75
26185;PMS7003;20067;48.764;9.176;2023-05-10T06:20:49;10.50;10.50;5.50
26185;PMS7003;20067;48.764;9.176;2023-05-10T06:23:15;11.25;9.00;5.75
26185;PMS7003;20067;48.764;9.176;2023-05-10T06:25:40;13.00;13.00;9.50
26185;PMS7003;20067;48.764;9.176;2023-05-10T06:28:06;11.75;11.75;8.75
26185;PMS7003;20067;48.764;9.176;2023-05-10T06:30:31;12.00;12.00;8.00
26185;PMS7003;20067;48.764;9.176;2023-05-10T06:32:57;10.75;9.00;5.00
26185;PMS7003;20067;48.764;9.176;2023-05-10T06:35:23;8.50;8.50;5.00
26185;PMS7003;20067;48.764;9.176;2023-05-10T06:37:49;10.75;10.75;5.00
26185;PMS7003;20067;48.764;9.176;2023-05-10T06:40:15;9.50;9.50;5.75
26185;PMS7003;20067;48.764;9.176;2023-05-10T06:42:40;12.75;12.75;9.25
26185;PMS7003;20067;48.764;9.176;2023-05-10T06:45:06;13.00;13.00;9.00
26185;PMS7003;20067;48.764;9.176;2023-05-10T06:47:33;16.00;16.00;12.00
26185;PMS7003;20067;48.764;9.176;2023-05-10T06:49:59;16.00;16.00;11.75
26185;PMS7003;20067;48.764;9.176;2023-05-10T06:52:24;14.00;14.00;11.25
26185;PMS7003;20067;48.764;9.176;2023-05-10T06:54:50;15.50;15.00;12.00
26185;PMS7003;20067;48.764;9.176;2023-05-10T06:57:15;18.75;17.50;13.50
26185;PMS7003;20067;48.764;9.176;2023-05-10T06:59:42;17.50;17.50;13.00
26185;PMS7003;20067;48.764;9.176;2023-05-10T07:02:08;16.50;15.50;12.00
26185;PMS7003;20067;48.764;9.176;2023-05-10T07:04:34;13.50;13.50;9.00
26185;PMS7003;20067;48.764;9.176;2023-05-10T07:06:59;11.75;11.75;8.25
26185;PMS7003;20067;48.764;9.176;2023-05-10T07:09:25;11.00;11.00;6.00
26185;PMS7003;20067;48.764;9.176;2023-05-10T07:11:50;11.75;10.75;8.00
26185;PMS7003;20067;48.764;9.176;2023-05-10T07:14:16;11.00;11.00;6.00
26185;PMS7003;20067;48.764;9.176;2023-05-10T07:16:42;8.00;8.00;5.00
26185;PMS7003;20067;48.764;9.176;2023-05-10T07:19:07;9.00;9.00;5.00
26185;PMS7003;20067;48.764;9.176;2023-05-10T07:21:33;10.50;10.50;6.00
26185;PMS7003;20067;48.764;9.176;2023-05-10T07:24:00;8.75;8.50;5.00
26185;PMS7003;20067;48.764;9.176;2023-05-10T07:26:25;8.00;8.00;4.25
26185;PMS7003;20067;48.764;9.176;2023-05-10T07:28:51;8.50;6.00;4.00
26185;PMS7003;20067;48.764;9.176;2023-05-10T07:31:17;8.00;8.00;4.00
26185;PMS7003;20067;48.764;9.176;2023-05-10T07:33:42;8.00;8.00;4.25
26185;PMS7003;20067;48.764;9.176;2023-05-10T07:36:08;8.50;8.00;4.00
26185;PMS7003;20067;48.764;9.176;2023-05-10T07:38:33;9.00;9.00;5.00
26185;PMS7003;20067;48.764;9.176;2023-05-10T07:40:59;6.50;6.50;4.00
26185;PMS7003;20067;48.764;9.176;2023-05-10T07:43:25;8.25;6.00;4.00
26185;PMS7003;20067;48.764;9.176;2023-05-10T07:45:50;6.00;6.00;3.50
26185;PMS7003;20067;48.764;9.176;2023-05-10T07:48:16;6.00;6.00;2.00
26185;PMS7003;20067;48.764;9.176;2023-05-10T07:50:42;6.00;6.00;2.00
26185;PMS7003;20067;48.764;9.176;2023-05-10T07:53:07;5.25;5.25;2.00
26185;PMS7003;20067;48.764;9.176;2023-05-10T07:55:33;5.00;5.00;1.00
26185;PMS7003;20067;48.764;9.176;2023-05-10T07:57:58;5.00;5.00;1.00
26185;PMS7003;20067;48.764;9.176;2023-05-10T08:00:26;5.50;5.50;1.75
26185;PMS7003;20067;48.764;9.176;2023-05-10T08:02:51;4.75;4.50;0.50
26185;PMS7003;20067;48.764;9.176;2023-05-10T08:05:17;5.00;4.00;1.00
26185;PMS7003;20067;48.764;9.176;2023-05-10T08:07:43;4.00;4.00;1.00
26185;PMS7003;20067;48.764;9.176;2023-05-10T08:10:09;4.50;4.50;1.00
26185;PMS7003;20067;48.764;9.176;2023-05-10T08:12:35;4.00;4.00;0.00
26185;PMS7003;20067;48.764;9.176;2023-05-10T08:15:01;2.25;2.25;0.00
26185;PMS7003;20067;48.764;9.176;2023-05-10T08:17:28;2.00;2.00;0.00
26185;PMS7003;20067;48.764;9.176;2023-05-10T08:19:53;2.25;2.00;0.00
26185;PMS7003;20067;48.764;9.176;2023-05-10T08:22:19;4.00;4.00;0.00
26185;PMS7003;20067;48.764;9.176;2023-05-10T08:24:44;2.00;2.00;0.00
26185;PMS7003;20067;48.764;9.176;2023-05-10T08:27:10;2.00;2.00;0.00
26185;PMS7003;20067;48.764;9.176;2023-05-10T08:29:37;4.00;3.50;0.00
26185;PMS7003;20067;48.764;9.176;2023-05-10T08:32:03;4.00;4.00;0.75
26185;PMS7003;20067;48.764;9.176;2023-05-10T08:34:28;6.50;5.50;0.75
26185;PMS7003;20067;48.764;9.176;2023-05-10T08:36:56;4.00;4.00;0.00
26185;PMS7003;20067;48.764;9.176;2023-05-10T08:39:21;2.50;2.50;0.00
26185;PMS7003;20067;48.764;9.176;2023-05-10T08:41:48;2.00;2.00;0.00
26185;PMS7003;20067;48.764;9.176;2023-05-10T08:44:18;2.00;2.00;0.00
26185;PMS7003;20067;48.764;9.176;2023-05-10T08:46:45;3.00;2.50;0.00
26185;PMS7003;20067;48.764;9.176;2023-05-10T08:49:16;4.50;4.50;0.00
26185;PMS7003;20067;48.764;9.176;2023-05-10T08:51:47;2.00;2.00;0.00
26185;PMS7003;20067;48.764;9.176;2023-05-10T08:54:16;3.00;3.00;0.00
26185;PMS7003;20067;48.764;9.176;2023-05-10T08:56:42;3.25;2.00;0.00
26185;PMS7003;20067;48.764;9.176;2023-05-10T08:59:08;3.00;3.00;0.00
26185;PMS7003;20067;48.764;9.176;2023-05-10T09:01:35;2.50;2.50;0.00
26185;PMS7003;20067;48.764;9.176;2023-05-10T09:04:01;3.00;3.00;0.00
26185;PMS7003;20067;48.764;9.176;2023-05-10T09:06:27;2.00;2.00;0.00
26185;PMS7003;20067;48.764;9.176;2023-05-10T09:08:54;3.75;3.00;0.00
26185;PMS7003;20067;48.764;9.176;2023-05-10T09:11:19;2.00;2.00;0.00
26185;PMS7003;20067;48.764;9.176;2023-05-10T09:13:46;2.00;2.00;0.00
26185;PMS7003;20067;48.764;9.176;2023-05-10T09:16:14;2.00;2.00;0.00
26185;PMS7003;20067;48.764;9.176;2023-05-10T09:18:40;2.00;2.00;0.00
26185;PMS7003;20067;48.764;9.176;2023-05-10T09:21:06;3.50;3.00;1.00
26185;PMS7003;20067;48.764;9.176;2023-05-10T09:23:31;2.25;2.00;0.00
26185;PMS7003;20067;48.764;9.176;2023-05-10T09:26:06;2.00;2.00;0.00
26185;PMS7003;20067;48.764;9.176;2023-05-10T09:28:49;2.00;2.00;0.00
26185;PMS7003;20067;48.764;9.176;2023-05-10T09:31:20;2.00;2.00;0.00
26185;PMS7003;20067;48.764;9.176;2023-05-10T09:33:49;3.25;3.00;0.50
26185;PMS7003;20067;48.764;9.176;2023-05-10T09:36:15;9.00;9.00;5.00
26185;PMS7003;20067;48.764;9.176;2023-05-10T09:38:51;11.00;8.25;4.00
26185;PMS7003;20067;48.764;9.176;2023-05-10T09:41:18;4.00;4.00;0.00
26185;PMS7003;20067;48.764;9.176;2023-05-10T09:43:45;3.25;3.25;0.00
26185;PMS7003;20067;48.764;9.176;2023-05-10T09:46:11;2.00;2.00;0.00
26185;PMS7003;20067;48.764;9.176;2023-05-10T09:48:45;3.50;3.50;0.00
26185;PMS7003;20067;48.764;9.176;2023-05-10T09:51:22;2.75;2.75;0.00
26185;PMS7003;20067;48.764;9.176;2023-05-10T09:54:08;2.00;2.00;0.00
26185;PMS7003;20067;48.764;9.176;2023-05-10T09:56:38;3.00;3.00;0.00
26185;PMS7003;20067;48.764;9.176;2023-05-10T09:59:06;3.00;3.00;0.50
26185;PMS7003;20067;48.764;9.176;2023-05-10T10:01:33;5.00;5.00;0.75
26185;PMS7003;20067;48.764;9.176;2023-05-10T10:04:02;2.00;2.00;0.00
26185;PMS7003;20067;48.764;9.176;2023-05-10T10:06:29;3.00;3.00;0.00
26185;PMS7003;20067;48.764;9.176;2023-05-10T10:09:01;2.20;2.20;0.00
26185;PMS7003;20067;48.764;9.176;2023-05-10T10:11:27;3.00;3.00;0.00
26185;PMS7003;20067;48.764;9.176;2023-05-10T10:13:53;2.75;2.75;0.75
26185;PMS7003;20067;48.764;9.176;2023-05-10T10:16:20;3.00;3.00;0.00
26185;PMS7003;20067;48.764;9.176;2023-05-10T10:18:46;2.00;2.00;0.00
26185;PMS7003;20067;48.764;9.176;2023-05-10T10:21:13;4.50;3.00;0.00
26185;PMS7003;20067;48.764;9.176;2023-05-10T10:23:39;2.75;2.75;0.75
26185;PMS7003;20067;48.764;9.176;2023-05-10T10:26:05;2.50;2.50;0.00
26185;PMS7003;20067;48.764;9.176;2023-05-10T10:34:01;6.00;3.00;1.00
26185;PMS7003;20067;48.764;9.176;2023-05-10T10:36:31;2.00;2.00;0.00
26185;PMS7003;20067;48.764;9.176;2023-05-10T10:39:10;2.00;2.00;0.00
26185;PMS7003;20067;48.764;9.176;2023-05-10T10:41:38;3.00;3.00;0.00
26185;PMS7003;20067;48.764;9.176;2023-05-10T10:52:20;5.00;3.00;0.00
26185;PMS7003;20067;48.764;9.176;2023-05-10T11:02:55;2.00;2.00;0.00
26185;PMS7003;20067;48.764;9.176;2023-05-10T11:07:56;2.00;2.00;0.00
26185;PMS7003;20067;48.764;9.176;2023-05-10T11:10:23;2.50;2.50;0.25
26185;PMS7003;20067;48.764;9.176;2023-05-10T11:13:02;2.00;2.00;0.00
26185;PMS7003;20067;48.764;9.176;2023-05-10T11:15:35;2.00;2.00;0.00
26185;PMS7003;20067;48.764;9.176;2023-05-10T11:20:51;3.00;2.00;0.00
26185;PMS7003;20067;48.764;9.176;2023-05-10T11:26:08;2.00;2.00;0.00
26185;PMS7003;20067;48.764;9.176;2023-05-10T11:28:34;2.00;2.00;0.00
26185;PMS7003;20067;48.764;9.176;2023-05-10T11:31:06;2.00;2.00;0.00
26185;PMS7003;20067;48.764;9.176;2023-05-10T11:33:36;3.25;2.00;0.00
26185;PMS7003;20067;48.764;9.176;2023-05-10T11:36:10;2.00;2.00;0.00
26185;PMS7003;20067;48.764;9.176;2023-05-10T11:38:37;2.00;2.00;0.00
26185;PMS7003;20067;48.764;9.176;2023-05-10T11:41:02;2.00;2.00;0.00
26185;PMS7003;20067;48.764;9.176;2023-05-10T11:43:28;2.25;2.00;0.00
26185;PMS7003;20067;48.764;9.176;2023-05-10T11:45:55;2.50;2.50;0.00
26185;PMS7003;20067;48.764;9.176;2023-05-10T11:48:21;5.25;3.00;1.00
26185;PMS7003;20067;48.764;9.176;2023-05-10T11:50:48;2.00;2.00;0.00
26185;PMS7003;20067;48.764;9.176;2023-05-10T11:53:14;2.25;2.00;0.00
26185;PMS7003;20067;48.764;9.176;2023-05-10T11:55:40;2.75;2.00;0.00
26185;PMS7003;20067;48.764;9.176;2023-05-10T11:58:05;4.00;4.00;0.00
26185;PMS7003;20067;48.764;9.176;2023-05-10T12:00:31;3.00;3.00;0.00
26185;PMS7003;20067;48.764;9.176;2023-05-10T12:02:57;2.00;2.00;0.00
26185;PMS7003;20067;48.764;9.176;2023-05-10T12:05:25;2.75;2.75;0.00
26185;PMS7003;20067;48.764;9.176;2023-05-10T12:07:51;3.25;2.75;0.00
26185;PMS7003;20067;48.764;9.176;2023-05-10T12:10:17;3.25;3.25;0.00
26185;PMS7003;20067;48.764;9.176;2023-05-10T12:12:51;5.00;4.00;0.00
26185;PMS7003;20067;48.764;9.176;2023-05-10T12:17:47;4.75;3.75;1.00
26185;PMS7003;20067;48.764;9.176;2023-05-10T12:20:18;4.00;3.00;1.00
26185;PMS7003;20067;48.764;9.176;2023-05-10T12:22:51;5.00;5.00;1.00
26185;PMS7003;20067;48.764;9.176;2023-05-10T12:25:19;3.75;3.00;1.00
26185;PMS7003;20067;48.764;9.176;2023-05-10T12:27:53;3.00;3.00;1.00
26185;PMS7003;20067;48.764;9.176;2023-05-10T12:30:27;3.00;3.00;1.00
26185;PMS7003;20067;48.764;9.176;2023-05-10T12:32:59;4.00;3.00;1.00
26185;PMS7003;20067;48.764;9.176;2023-05-10T12:35:29;3.00;3.00;1.00
26185;PMS7003;20067;48.764;9.176;2023-05-10T12:37:55;3.00;3.00;0.75
26185;PMS7003;20067;48.764;9.176;2023-05-10T12:40:21;3.00;3.00;1.00
26185;PMS7003;20067;48.764;9.176;2023-05-10T12:42:46;2.50;2.50;0.25
26185;PMS7003;20067;48.764;9.176;2023-05-10T12:45:13;3.50;3.50;1.00
26185;PMS7003;20067;48.764;9.176;2023-05-10T12:47:39;2.00;2.00;0.00
26185;PMS7003;20067;48.764;9.176;2023-05-10T12:50:05;3.00;3.00;0.25
26185;PMS7003;20067;48.764;9.176;2023-05-10T12:52:31;3.00;3.00;1.00
26185;PMS7003;20067;48.764;9.176;2023-05-10T12:54:57;3.00;3.00;0.75
26185;PMS7003;20067;48.764;9.176;2023-05-10T12:57:23;6.00;3.00;1.00
26185;PMS7003;20067;48.764;9.176;2023-05-10T12:59:49;5.00;2.75;0.00
26185;PMS7003;20067;48.764;9.176;2023-05-10T13:02:15;3.00;3.00;0.50
26185;PMS7003;20067;48.764;9.176;2023-05-10T13:04:43;4.25;3.75;0.50
26185;PMS7003;20067;48.764;9.176;2023-05-10T13:07:09;2.00;2.00;0.00
26185;PMS7003;20067;48.764;9.176;2023-05-10T13:09:35;5.00;5.00;1.25
26185;PMS7003;20067;48.764;9.176;2023-05-10T13:12:01;5.00;5.00;1.00
26185;PMS7003;20067;48.764;9.176;2023-05-10T13:14:27;3.25;3.25;1.00
26185;PMS7003;20067;48.764;9.176;2023-05-10T13:16:54;3.00;3.00;1.00
26185;PMS7003;20067;48.764;9.176;2023-05-10T13:19:20;3.75;3.00;1.00
26185;PMS7003;20067;48.764;9.176;2023-05-10T13:21:46;3.00;3.00;0.00
26185;PMS7003;20067;48.764;9.176;2023-05-10T13:24:11;3.00;3.00;1.00
26185;PMS7003;20067;48.764;9.176;2023-05-10T13:26:43;3.00;3.00;0.00
26185;PMS7003;20067;48.764;9.176;2023-05-10T13:29:09;2.00;2.00;0.00
26185;PMS7003;20067;48.764;9.176;2023-05-10T13:31:35;5.50;5.00;1.00
26185;PMS7003;20067;48.764;9.176;2023-05-10T13:34:01;3.00;3.00;1.00
26185;PMS7003;20067;48.764;9.176;2023-05-10T13:36:27;3.00;3.00;0.00
26185;PMS7003;20067;48.764;9.176;2023-05-10T13:38:53;5.00;3.00;1.00
26185;PMS7003;20067;48.764;9.176;2023-05-10T13:41:18;5.75;4.50;1.00
26185;PMS7003;20067;48.764;9.176;2023-05-10T13:43:44;3.00;3.00;0.75
26185;PMS7003;20067;48.764;9.176;2023-05-10T13:46:09;5.00;3.00;0.75
26185;PMS7003;20067;48.764;9.176;2023-05-10T13:48:35;4.50;4.50;1.00
26185;PMS7003;20067;48.764;9.176;2023-05-10T13:51:02;3.25;3.25;1.00
26185;PMS7003;20067;48.764;9.176;2023-05-10T13:53:27;4.00;3.00;1.00
26185;PMS7003;20067;48.764;9.176;2023-05-10T13:55:53;4.25;4.25;1.00
26185;PMS7003;20067;48.764;9.176;2023-05-10T13:58:18;5.25;4.00;1.00
26185;PMS7003;20067;48.764;9.176;2023-05-10T14:00:44;5.50;4.00;1.00
26185;PMS7003;20067;48.764;9.176;2023-05-10T14:03:10;5.00;5.00;1.00
26185;PMS7003;20067;48.764;9.176;2023-05-10T14:05:35;5.25;5.00;1.00
26185;PMS7003;20067;48.764;9.176;2023-05-10T14:08:01;6.50;5.50;2.00
26185;PMS7003;20067;48.764;9.176;2023-05-10T14:10:27;3.00;3.00;1.00
26185;PMS7003;20067;48.764;9.176;2023-05-10T14:12:53;4.50;3.00;1.00
26185;PMS7003;20067;48.764;9.176;2023-05-10T14:15:18;5.00;5.00;1.00
26185;PMS7003;20067;48.764;9.176;2023-05-10T14:17:44;5.75;5.50;2.00
26185;PMS7003;20067;48.764;9.176;2023-05-10T14:20:10;5.00;5.00;1.00
26185;PMS7003;20067;48.764;9.176;2023-05-10T14:22:36;2.75;2.75;0.75
26185;PMS7003;20067;48.764;9.176;2023-05-10T14:25:01;2.75;2.75;0.00
26185;PMS7003;20067;48.764;9.176;2023-05-10T14:27:27;5.25;5.00;1.00
26185;PMS7003;20067;48.764;9.176;2023-05-10T14:29:53;5.50;5.50;1.50
26185;PMS7003;20067;48.764;9.176;2023-05-10T14:32:18;4.50;4.50;1.00
26185;PMS7003;20067;48.764;9.176;2023-05-10T14:34:44;3.00;3.00;1.00
26185;PMS7003;20067;48.764;9.176;2023-05-10T14:37:10;4.00;4.00;1.00
26185;PMS7003;20067;48.764;9.176;2023-05-10T14:39:36;2.50;2.50;0.25
26185;PMS7003;20067;48.764;9.176;2023-05-10T14:42:02;3.00;3.00;1.00
26185;PMS7003;20067;48.764;9.176;2023-05-10T14:44:28;2.50;2.00;0.00
26185;PMS7003;20067;48.764;9.176;2023-05-10T14:46:53;3.00;3.00;1.00
26185;PMS7003;20067;48.764;9.176;2023-05-10T14:49:20;3.00;3.00;0.00
26185;PMS7003;20067;48.764;9.176;2023-05-10T14:51:47;4.00;3.00;0.00
26185;PMS7003;20067;48.764;9.176;2023-05-10T14:54:13;3.00;3.00;0.00
26185;PMS7003;20067;48.764;9.176;2023-05-10T14:56:39;3.50;3.00;1.00
26185;PMS7003;20067;48.764;9.176;2023-05-10T14:59:06;3.00;3.00;1.00
26185;PMS7003;20067;48.764;9.176;2023-05-10T15:01:32;3.00;3.00;1.00
26185;PMS7003;20067;48.764;9.176;2023-05-10T15:03:58;2.50;2.50;0.50
26185;PMS7003;20067;48.764;9.176;2023-05-10T15:06:29;3.00;3.00;0.00
26185;PMS7003;20067;48.764;9.176;2023-05-10T15:08:55;3.00;3.00;0.50
26185;PMS7003;20067;48.764;9.176;2023-05-10T15:11:21;3.00;3.00;0.25